Time;durP1;ratioP1;P1;durP2;ratioP2;P2;SDS_P1;SDS_P2;PMS_P1;PMS_P2;Temp;Humidity;BMP_temperature;BMP_pressure;BME280_temperature;BME280_humidity;BME280_pressure;Samples;Min_cycle;Max_cycle;Signal;HPM_P1;HPM_P2
2023/07/10 00:01:46;;;;;;;6.07;4.57;;;;;;;21.80;97.90;100631.34;4948039;28;20317;-69
2023/07/10 00:04:19;;;;;;;10.07;4.88;;;;;;;21.74;99.11;100633.34;4949663;28;20555;-68
2023/07/10 00:06:46;;;;;;;6.22;4.63;;;;;;;21.69;99.92;100632.59;4948080;28;20278;-69
2023/07/10 00:09:13;;;;;;;10.65;5.05;;;;;;;21.64;100.00;100629.13;4943145;28;20240;-69
2023/07/10 00:11:41;;;;;;;8.48;5.13;;;;;;;21.75;100.00;100629.72;4950975;28;20245;-69
2023/07/10 00:14:18;;;;;;;9.98;5.20;;;;;;;21.77;100.00;100636.81;4939164;28;20202;-68
2023/07/10 00:16:44;;;;;;;8.50;5.22;;;;;;;21.72;100.00;100622.59;4951005;28;20212;-68
2023/07/10 00:19:11;;;;;;;7.50;5.57;;;;;;;21.77;100.00;100631.44;4944374;28;20202;-69
2023/07/10 00:21:37;;;;;;;8.20;6.38;;;;;;;21.75;100.00;100633.28;4944636;29;20222;-69
2023/07/10 00:24:04;;;;;;;11.90;5.20;;;;;;;21.69;100.00;100644.25;4941033;28;20195;-69
2023/07/10 00:26:31;;;;;;;8.35;5.32;;;;;;;21.57;100.00;100640.06;4946120;28;20194;-69
2023/07/10 00:29:00;;;;;;;10.02;5.47;;;;;;;21.49;100.00;100635.81;4948114;28;20199;-69
2023/07/10 00:31:27;;;;;;;6.88;5.50;;;;;;;21.39;100.00;100637.00;4949382;28;20198;-68
2023/07/10 00:33:54;;;;;;;9.60;5.95;;;;;;;21.34;100.00;100628.16;4948761;28;20305;-69
2023/07/10 00:36:32;;;;;;;7.15;5.30;;;;;;;21.29;100.00;100624.72;4951344;28;20617;-68
2023/07/10 00:39:20;;;;;;;9.60;5.95;;;;;;;21.42;100.00;100636.91;4951846;28;20207;-68
2023/07/10 00:41:51;;;;;;;11.95;5.53;;;;;;;21.54;100.00;100639.25;4951477;28;20228;-69
2023/07/10 00:44:20;;;;;;;9.95;6.07;;;;;;;21.56;100.00;100638.28;4947732;28;20194;-69
2023/07/10 00:46:59;;;;;;;9.23;5.20;;;;;;;21.59;100.00;100640.00;4947530;29;20194;-69
2023/07/10 00:49:39;;;;;;;7.03;5.28;;;;;;;21.63;100.00;100643.53;4947348;28;20233;-68
2023/07/10 00:52:13;;;;;;;13.25;5.95;;;;;;;21.71;100.00;100641.50;4945019;28;20241;-69
2023/07/10 00:54:44;;;;;;;9.82;5.07;;;;;;;21.67;100.00;100639.81;4949611;29;20209;-68
2023/07/10 00:57:15;;;;;;;8.90;4.80;;;;;;;21.67;100.00;100635.31;4947308;28;20241;-69
2023/07/10 00:59:42;;;;;;;11.15;5.13;;;;;;;21.85;100.00;100629.38;4929017;29;20705;-69
2023/07/10 01:02:08;;;;;;;7.10;5.00;;;;;;;21.96;100.00;100636.28;4945622;28;20606;-69
2023/07/10 01:04:40;;;;;;;7.43;5.20;;;;;;;22.06;100.00;100636.00;4947106;29;20709;-68
2023/07/10 01:07:12;;;;;;;11.35;5.53;;;;;;;22.35;100.00;100631.53;4952896;28;20228;-68
2023/07/10 01:09:49;;;;;;;9.23;5.35;;;;;;;22.47;100.00;100634.75;4953149;28;20290;-68
2023/07/10 01:12:16;;;;;;;11.02;5.80;;;;;;;22.57;100.00;100629.94;4946970;29;20206;-68
2023/07/10 01:14:43;;;;;;;10.90;6.18;;;;;;;22.58;100.00;100633.50;4947135;29;20206;-68
2023/07/10 01:17:10;;;;;;;10.93;6.28;;;;;;;22.73;100.00;100644.69;4951940;29;20308;-68
2023/07/10 01:19:38;;;;;;;10.20;5.72;;;;;;;22.70;100.00;100646.59;4950536;28;20297;-68
2023/07/10 01:22:09;;;;;;;8.30;5.55;;;;;;;22.70;100.00;100655.59;4946515;28;20244;-68
2023/07/10 01:24:36;;;;;;;10.45;5.97;;;;;;;22.75;100.00;100667.13;4949411;29;20289;-68
2023/07/10 01:27:11;;;;;;;11.65;6.55;;;;;;;22.82;100.00;100665.16;4950959;28;20261;-68
2023/07/10 01:29:47;;;;;;;8.88;6.45;;;;;;;22.85;100.00;100667.78;4949815;29;20293;-68
2023/07/10 01:32:17;;;;;;;11.32;6.55;;;;;;;22.90;100.00;100675.72;4950739;28;20201;-68
2023/07/10 01:34:52;;;;;;;11.13;6.43;;;;;;;22.95;100.00;100671.94;4949575;28;20265;-68
2023/07/10 01:37:19;;;;;;;8.43;6.30;;;;;;;22.97;100.00;100688.09;4946718;29;20273;-68
2023/07/10 01:39:48;;;;;;;10.32;6.90;;;;;;;23.03;100.00;100687.88;4939476;29;20241;-68
2023/07/10 01:42:15;;;;;;;12.23;6.30;;;;;;;23.01;100.00;100693.34;4946047;29;20225;-68
2023/07/10 01:44:44;;;;;;;9.18;6.93;;;;;;;22.93;100.00;100691.81;4945458;28;20208;-68
2023/07/10 01:47:12;;;;;;;11.25;6.97;;;;;;;22.85;100.00;100697.47;4949809;29;20221;-68
2023/07/10 01:49:45;;;;;;;12.77;7.57;;;;;;;22.75;100.00;100695.94;4949457;29;20202;-68
2023/07/10 01:52:14;;;;;;;7.97;6.32;;;;;;;22.59;100.00;100708.16;4943101;29;20614;-68
2023/07/10 01:54:41;;;;;;;8.50;5.70;;;;;;;22.40;100.00;100703.31;4950391;29;20226;-68
2023/07/10 01:57:09;;;;;;;9.05;6.63;;;;;;;22.21;100.00;100699.41;4949744;29;20313;-69
2023/07/10 01:59:36;;;;;;;10.90;6.47;;;;;;;22.04;100.00;100691.81;4949642;29;20198;-68
2023/07/10 02:02:03;;;;;;;8.98;5.90;;;;;;;21.87;100.00;100692.25;4947116;28;20223;-68
2023/07/10 02:04:30;;;;;;;8.82;6.88;;;;;;;21.75;100.00;100692.59;4945631;28;20245;-68
2023/07/10 02:06:56;;;;;;;12.40;8.10;;;;;;;21.81;100.00;100688.84;4944501;29;20232;-68
2023/07/10 02:09:27;;;;;;;11.23;7.45;;;;;;;21.85;100.00;100680.63;4944472;28;20383;-68
2023/07/10 02:11:54;;;;;;;17.05;9.82;;;;;;;21.99;100.00;100688.31;4947615;28;20202;-68
2023/07/10 02:14:22;;;;;;;14.05;8.60;;;;;;;22.15;100.00;100694.19;4948817;29;20198;-68
2023/07/10 02:16:48;;;;;;;15.95;9.27;;;;;;;22.34;100.00;100695.41;4929031;29;20733;-68
2023/07/10 02:19:15;;;;;;;11.05;8.07;;;;;;;22.31;100.00;100698.19;4944701;29;20313;-68
2023/07/10 02:21:42;;;;;;;17.30;9.68;;;;;;;22.25;100.00;100697.50;4946301;28;20293;-68
2023/07/10 02:24:08;;;;;;;13.32;9.40;;;;;;;22.22;100.00;100695.78;4946984;29;20677;-68
2023/07/10 02:26:34;;;;;;;13.27;9.48;;;;;;;22.23;100.00;100688.56;4947486;29;20214;-68
2023/07/10 02:29:01;;;;;;;15.63;10.27;;;;;;;22.18;100.00;100688.72;4944942;28;20288;-68
2023/07/10 02:31:28;;;;;;;15.30;10.88;;;;;;;22.17;100.00;100684.25;4948581;29;20249;-68
2023/07/10 02:33:55;;;;;;;19.95;11.43;;;;;;;22.10;100.00;100694.34;4945145;29;20198;-68
2023/07/10 02:36:22;;;;;;;19.27;11.82;;;;;;;22.04;100.00;100691.81;4948555;29;20598;-68
2023/07/10 02:38:49;;;;;;;19.23;12.45;;;;;;;21.99;100.00;100699.09;4943279;29;20229;-68
2023/07/10 02:41:16;;;;;;;21.80;14.10;;;;;;;21.96;100.00;100699.19;4947452;28;20229;-68
2023/07/10 02:43:42;;;;;;;24.00;14.95;;;;;;;21.87;100.00;100692.25;4945648;29;20230;-68
2023/07/10 02:46:09;;;;;;;23.52;15.27;;;;;;;21.80;100.00;100684.38;4944098;28;20295;-68
2023/07/10 02:48:35;;;;;;;22.60;15.57;;;;;;;21.74;100.00;100687.25;4945399;29;20305;-68
2023/07/10 02:51:02;;;;;;;27.30;15.65;;;;;;;21.71;100.00;100682.84;4932208;28;20280;-68
2023/07/10 02:53:28;;;;;;;20.90;15.63;;;;;;;21.65;100.00;100696.47;4947452;29;20286;-68
2023/07/10 02:55:55;;;;;;;24.80;17.10;;;;;;;21.66;100.00;100684.78;4949153;28;20198;-68
2023/07/10 02:58:21;;;;;;;27.45;17.63;;;;;;;21.67;100.00;100689.25;4951470;29;20436;-68
2023/07/10 03:00:58;;;;;;;27.30;19.50;;;;;;;21.67;100.00;100688.34;4951376;29;20201;-68
2023/07/10 03:03:25;;;;;;;26.50;18.83;;;;;;;21.63;100.00;100676.78;4951938;29;20257;-68
2023/07/10 03:05:53;;;;;;;32.17;19.65;;;;;;;21.62;100.00;100680.41;4948590;29;20207;-68
2023/07/10 03:08:19;;;;;;;30.50;19.55;;;;;;;21.52;100.00;100686.94;4951040;28;20233;-68
2023/07/10 03:10:46;;;;;;;30.25;20.33;;;;;;;21.53;100.00;100696.78;4951331;28;20198;-68
2023/07/10 03:13:12;;;;;;;34.17;19.77;;;;;;;21.47;100.00;100694.25;4949609;28;20199;-68
2023/07/10 03:15:39;;;;;;;30.33;20.35;;;;;;;21.45;100.00;100725.75;4946875;28;20212;-68
2023/07/10 03:18:05;;;;;;;37.30;23.00;;;;;;;21.51;100.00;100726.47;4949983;28;20226;-68
2023/07/10 03:20:32;;;;;;;34.85;22.40;;;;;;;21.50;100.00;100732.78;4951467;28;20209;-68
2023/07/10 03:22:58;;;;;;;33.85;22.88;;;;;;;21.39;100.00;100734.88;4950558;29;20225;-68
2023/07/10 03:25:24;;;;;;;36.88;24.05;;;;;;;21.39;100.00;100729.50;4951808;28;20205;-68
2023/07/10 03:27:51;;;;;;;37.17;23.73;;;;;;;21.38;100.00;100732.22;4951109;28;20221;-68
2023/07/10 03:30:19;;;;;;;37.28;24.75;;;;;;;21.39;100.00;100747.47;4951828;29;20199;-68
2023/07/10 03:32:45;;;;;;;36.20;23.88;;;;;;;21.39;100.00;100745.66;4951457;29;20612;-68
2023/07/10 03:35:12;;;;;;;32.88;22.08;;;;;;;21.33;100.00;100753.03;4950189;28;20212;-69
2023/07/10 03:37:38;;;;;;;34.25;22.90;;;;;;;21.31;100.00;100742.28;4952753;29;20226;-68
2023/07/10 03:40:05;;;;;;;33.40;22.02;;;;;;;21.33;100.00;100747.63;4952067;29;20202;-68
2023/07/10 03:42:32;;;;;;;32.17;21.55;;;;;;;21.27;100.00;100752.25;4946347;29;20218;-68
2023/07/10 03:44:58;;;;;;;31.88;21.15;;;;;;;21.20;100.00;100752.38;4952394;29;20252;-68
2023/07/10 03:47:25;;;;;;;32.50;20.63;;;;;;;21.22;100.00;100767.63;4953701;29;20221;-68
2023/07/10 03:49:51;;;;;;;26.23;17.70;;;;;;;21.13;100.00;100773.19;4949118;28;20257;-69
2023/07/10 03:52:17;;;;;;;23.60;17.73;;;;;;;21.00;100.00;100771.72;4943190;28;20206;-68
2023/07/10 03:54:44;;;;;;;21.00;15.90;;;;;;;20.87;100.00;100771.13;4944990;28;20198;-68
2023/07/10 03:57:10;;;;;;;22.17;15.57;;;;;;;20.77;100.00;100772.25;4944686;28;20225;-69
2023/07/10 03:59:37;;;;;;;26.75;17.98;;;;;;;20.78;100.00;100776.69;4947230;28;20197;-69
2023/07/10 04:02:03;;;;;;;26.67;17.60;;;;;;;20.78;100.00;100783.88;4946765;28;20322;-68
2023/07/10 04:04:30;;;;;;;24.65;16.77;;;;;;;20.87;100.00;100781.91;4947748;28;20214;-68
2023/07/10 04:06:56;;;;;;;27.23;20.15;;;;;;;20.93;100.00;100792.53;4945607;28;20214;-68
2023/07/10 04:09:23;;;;;;;32.00;20.10;;;;;;;21.10;100.00;100786.75;4946856;28;20198;-68
2023/07/10 04:11:49;;;;;;;30.00;20.25;;;;;;;21.12;100.00;100784.91;4945589;28;20217;-68
2023/07/10 04:14:15;;;;;;;27.38;18.83;;;;;;;21.16;100.00;100783.00;4942349;28;20207;-68
2023/07/10 04:16:42;;;;;;;28.50;20.58;;;;;;;21.39;100.00;100782.50;4947672;28;20202;-68
2023/07/10 04:19:09;;;;;;;32.55;21.73;;;;;;;21.53;100.00;100785.72;4946085;28;20199;-68
2023/07/10 04:21:35;;;;;;;34.90;22.08;;;;;;;21.66;100.00;100783.63;4947643;28;20218;-68
2023/07/10 04:24:04;;;;;;;32.95;22.02;;;;;;;21.74;100.00;100789.72;4946378;28;20202;-68
2023/07/10 04:26:33;;;;;;;31.65;21.65;;;;;;;21.77;100.00;100786.94;4948702;28;20297;-68
2023/07/10 04:29:04;;;;;;;25.95;18.13;;;;;;;21.82;100.00;100785.88;4946934;28;20206;-68
2023/07/10 04:31:30;;;;;;;28.92;20.00;;;;;;;21.91;100.00;100784.75;4946880;28;20324;-68
2023/07/10 04:33:57;;;;;;;25.55;17.85;;;;;;;22.07;100.00;100783.44;4939829;28;20195;-68
2023/07/10 04:36:25;;;;;;;26.98;19.10;;;;;;;22.17;100.00;100795.75;4945759;28;20198;-68
2023/07/10 04:38:51;;;;;;;26.02;18.63;;;;;;;22.19;100.00;100810.09;4947195;28;20253;-68
2023/07/10 04:41:21;;;;;;;27.73;19.42;;;;;;;22.33;100.00;100808.81;4947164;28;20206;-68
2023/07/10 04:43:48;;;;;;;28.40;19.20;;;;;;;22.41;100.00;100806.75;4947788;28;20225;-68
2023/07/10 04:46:17;;;;;;;28.65;19.92;;;;;;;22.45;100.00;100803.06;4941734;28;20206;-68
2023/07/10 04:48:44;;;;;;;26.95;19.90;;;;;;;22.47;100.00;100814.72;4948527;28;20283;-68
2023/07/10 04:51:13;;;;;;;27.77;19.75;;;;;;;22.54;100.00;100818.13;4950197;28;20348;-68
2023/07/10 04:53:40;;;;;;;26.42;19.02;;;;;;;22.63;100.00;100823.25;4949440;29;20194;-68
2023/07/10 04:56:08;;;;;;;25.92;18.77;;;;;;;22.68;100.00;100835.66;4947860;29;20203;-69
2023/07/10 04:58:51;;;;;;;27.88;18.92;;;;;;;22.76;100.00;100830.03;4952798;28;20226;-68
2023/07/10 05:01:21;;;;;;;28.67;18.95;;;;;;;22.91;100.00;100836.84;4948783;28;20206;-68
2023/07/10 05:03:48;;;;;;;31.05;19.13;;;;;;;23.00;100.00;100837.44;4949947;29;20232;-68
2023/07/10 05:06:16;;;;;;;25.80;18.38;;;;;;;23.12;100.00;100839.75;4947817;29;20213;-68
2023/07/10 05:08:42;;;;;;;28.23;18.88;;;;;;;23.19;100.00;100837.75;4947605;29;20899;-68
2023/07/10 05:11:09;;;;;;;25.83;17.98;;;;;;;23.31;100.00;100839.22;4949850;29;20202;-69
2023/07/10 05:13:35;;;;;;;26.50;19.40;;;;;;;23.39;100.00;100839.84;4950440;29;20413;-68
2023/07/10 05:16:02;;;;;;;23.85;17.83;;;;;;;23.53;100.00;100851.09;4948708;28;20222;-68
2023/07/10 05:18:29;;;;;;;31.27;20.38;;;;;;;23.55;100.00;100856.44;4933676;28;20214;-68
2023/07/10 05:20:58;;;;;;;27.98;19.27;;;;;;;23.58;100.00;100846.44;4946327;28;20206;-69
2023/07/10 05:23:26;;;;;;;28.55;20.63;;;;;;;23.59;100.00;100859.03;4944345;28;20305;-69
2023/07/10 05:26:08;;;;;;;26.95;20.20;;;;;;;23.64;100.00;100853.50;4943031;28;20293;-69
2023/07/10 05:28:36;;;;;;;26.85;19.40;;;;;;;23.74;100.00;100850.41;4945561;28;20232;-70
2023/07/10 05:31:04;;;;;;;32.13;19.67;;;;;;;23.99;100.00;100855.88;4945390;28;20202;-70
2023/07/10 05:33:31;;;;;;;28.83;19.77;;;;;;;24.13;100.00;100859.94;4945657;28;20195;-69
2023/07/10 05:35:59;;;;;;;32.03;20.52;;;;;;;24.25;100.00;100865.78;4942704;28;20198;-69
2023/07/10 05:38:28;;;;;;;27.50;19.20;;;;;;;24.37;100.00;100872.63;4932827;28;20607;-69
2023/07/10 05:40:55;;;;;;;28.10;19.38;;;;;;;24.34;100.00;100868.19;4940493;28;20350;-69
2023/07/10 05:43:22;;;;;;;25.33;18.65;;;;;;;24.64;100.00;100871.63;4938474;28;20693;-69
2023/07/10 05:45:49;;;;;;;27.42;18.65;;;;;;;24.90;99.90;100869.78;4943286;28;20208;-69
2023/07/10 05:48:16;;;;;;;33.67;20.08;;;;;;;25.06;96.73;100870.97;4941548;28;20313;-69
2023/07/10 05:50:46;;;;;;;29.10;19.80;;;;;;;25.28;95.11;100871.03;4944003;28;20529;-69
2023/07/10 05:53:13;;;;;;;27.35;19.92;;;;;;;25.51;92.47;100870.09;4941713;28;20194;-69
2023/07/10 05:55:46;;;;;;;29.90;21.08;;;;;;;25.70;90.11;100871.16;4936381;28;20868;-70
2023/07/10 05:58:15;;;;;;;27.02;19.90;;;;;;;25.67;89.52;100867.69;4920327;28;20237;-69
2023/07/10 06:00:43;;;;;;;26.48;19.83;;;;;;;25.72;88.81;100869.28;4950205;28;20222;-70
2023/07/10 06:03:10;;;;;;;28.85;20.52;;;;;;;25.84;87.68;100867.88;4946040;28;20317;-66
2023/07/10 06:05:36;;;;;;;28.52;19.65;;;;;;;25.85;87.61;100864.19;4948236;28;20194;-67
2023/07/10 06:08:03;;;;;;;24.90;19.02;;;;;;;25.89;87.04;100868.56;4931471;28;20224;-68
2023/07/10 06:10:29;;;;;;;28.67;19.88;;;;;;;25.94;86.71;100866.53;4947380;28;20328;-67
2023/07/10 06:12:56;;;;;;;29.85;21.60;;;;;;;25.93;86.75;100864.75;4945542;28;20282;-67
2023/07/10 06:15:22;;;;;;;22.67;17.73;;;;;;;26.04;86.89;100859.78;4945073;28;20198;-67
2023/07/10 06:17:49;;;;;;;30.33;20.60;;;;;;;26.05;84.80;100872.41;4949935;29;20608;-67
2023/07/10 06:20:15;;;;;;;31.48;20.63;;;;;;;25.69;87.70;100868.53;4941975;28;20211;-67
2023/07/10 06:22:42;;;;;;;30.85;21.15;;;;;;;25.56;89.01;100873.50;4942566;28;20237;-67
2023/07/10 06:25:09;;;;;;;27.02;20.23;;;;;;;25.76;87.83;100876.34;4937839;28;20296;-67
2023/07/10 06:27:36;;;;;;;27.98;20.25;;;;;;;25.80;88.49;100887.94;4947828;29;20484;-67
2023/07/10 06:30:03;;;;;;;27.38;20.08;;;;;;;25.68;88.61;100888.47;4945012;28;20284;-68
2023/07/10 06:32:31;;;;;;;29.80;20.52;;;;;;;25.76;87.80;100889.03;4940908;28;20667;-69
2023/07/10 06:34:57;;;;;;;28.90;21.27;;;;;;;25.86;86.77;100888.56;4934455;29;20203;-69
2023/07/10 06:37:23;;;;;;;30.67;21.73;;;;;;;25.98;86.07;100888.97;4943043;28;20226;-69
2023/07/10 06:40:07;;;;;;;27.70;20.73;;;;;;;26.00;86.11;100887.97;4939914;29;20525;-69
2023/07/10 06:42:35;;;;;;;28.80;20.80;;;;;;;26.08;85.29;100885.84;4937620;28;20221;-68
2023/07/10 06:45:04;;;;;;;29.40;20.52;;;;;;;26.23;83.96;100882.44;4940591;28;20249;-69
2023/07/10 06:47:31;;;;;;;27.15;20.55;;;;;;;26.07;84.57;100880.47;4949028;29;20762;-69
2023/07/10 06:49:58;;;;;;;26.65;19.77;;;;;;;26.49;83.81;100883.19;4940032;28;20355;-69
2023/07/10 06:52:29;;;;;;;27.10;19.30;;;;;;;26.74;82.85;100875.66;4947047;28;20265;-68
2023/07/10 06:54:55;;;;;;;27.83;19.90;;;;;;;26.74;82.23;100881.09;4928936;29;20535;-69
2023/07/10 06:57:21;;;;;;;23.13;18.67;;;;;;;26.87;82.05;100888.72;4943206;28;20235;-68
2023/07/10 06:59:48;;;;;;;26.05;17.98;;;;;;;27.17;81.40;100887.31;4943926;28;20220;-68
2023/07/10 07:02:14;;;;;;;26.10;19.17;;;;;;;27.39;76.29;100888.06;4945240;29;20297;-67
2023/07/10 07:04:41;;;;;;;25.77;18.10;;;;;;;27.71;75.49;100893.81;4930448;29;20758;-68
2023/07/10 07:07:08;;;;;;;26.00;18.85;;;;;;;27.91;74.31;100901.84;4943566;28;20935;-68
2023/07/10 07:09:34;;;;;;;22.50;18.50;;;;;;;27.85;74.31;100893.97;4942372;29;20199;-68
2023/07/10 07:12:01;;;;;;;23.77;18.40;;;;;;;27.92;73.61;100900.00;4943604;28;20202;-68
2023/07/10 07:14:27;;;;;;;27.08;19.08;;;;;;;27.33;75.38;100899.22;4942909;28;20206;-68
2023/07/10 07:16:54;;;;;;;28.83;19.33;;;;;;;27.36;75.41;100903.66;4947134;28;20218;-68
2023/07/10 07:19:20;;;;;;;25.48;18.88;;;;;;;27.45;75.67;100908.63;4929303;28;20671;-67
2023/07/10 07:21:47;;;;;;;24.85;17.80;;;;;;;27.76;73.34;100911.66;4949286;29;20198;-68
2023/07/10 07:24:14;;;;;;;24.48;17.70;;;;;;;27.75;72.40;100911.75;4948039;28;20706;-68
2023/07/10 07:26:40;;;;;;;20.48;16.13;;;;;;;27.92;72.80;100916.34;4943389;29;20202;-70
2023/07/10 07:29:06;;;;;;;25.90;17.80;;;;;;;27.85;72.44;100915.75;4946273;29;20674;-67
2023/07/10 07:31:33;;;;;;;22.00;16.48;;;;;;;28.88;67.50;100915.00;4943743;28;20553;-68
2023/07/10 07:33:59;;;;;;;21.27;15.68;;;;;;;30.01;62.12;100919.50;4943785;28;20833;-71
2023/07/10 07:36:26;;;;;;;20.58;14.65;;;;;;;29.80;62.91;100913.47;4942389;29;20644;-68
2023/07/10 07:38:52;;;;;;;19.33;15.00;;;;;;;29.88;63.23;100916.63;4940606;28;20602;-69
2023/07/10 07:41:19;;;;;;;22.05;14.65;;;;;;;31.13;58.18;100909.00;4945463;28;20217;-68
2023/07/10 07:43:45;;;;;;;16.70;13.13;;;;;;;30.30;58.13;100912.34;4948856;28;20233;-69
2023/07/10 07:46:11;;;;;;;17.05;12.73;;;;;;;30.30;58.51;100909.63;4948885;28;20210;-69
2023/07/10 07:48:38;;;;;;;22.15;13.00;;;;;;;29.42;61.46;100903.84;4951024;29;20280;-69
2023/07/10 07:51:07;;;;;;;15.05;11.65;;;;;;;29.14;62.90;100912.66;4948781;28;20241;-69
2023/07/10 07:53:39;;;;;;;15.00;10.98;;;;;;;29.55;61.29;100913.09;4951338;29;20197;-69
2023/07/10 07:56:06;;;;;;;12.85;9.95;;;;;;;29.25;61.53;100907.53;4950429;29;20289;-70
2023/07/10 07:58:32;;;;;;;12.15;9.57;;;;;;;29.92;58.64;100911.84;4943627;28;20236;-69
2023/07/10 08:01:02;;;;;;;15.20;8.82;;;;;;;31.07;54.53;100909.41;4949576;28;20206;-69
2023/07/10 08:03:29;;;;;;;12.50;9.82;;;;;;;30.88;54.74;100910.69;4947450;28;20655;-68
2023/07/10 08:05:56;;;;;;;15.10;9.75;;;;;;;31.23;54.15;100906.63;4951138;28;20671;-68
2023/07/10 08:08:22;;;;;;;14.25;9.75;;;;;;;31.40;53.25;100900.91;4953496;28;20234;-68
2023/07/10 08:10:50;;;;;;;15.45;10.15;;;;;;;31.26;53.70;100911.88;4954129;28;20209;-68
2023/07/10 08:13:18;;;;;;;14.70;10.90;;;;;;;31.23;53.57;100906.63;4949067;28;20605;-68
2023/07/10 08:15:45;;;;;;;15.27;9.27;;;;;;;32.16;52.31;100907.78;4951523;29;20285;-68
2023/07/10 08:18:12;;;;;;;16.17;9.63;;;;;;;31.95;51.43;100910.09;4952067;28;20222;-68
2023/07/10 08:20:38;;;;;;;12.75;9.35;;;;;;;30.94;54.00;100913.03;4951324;28;20206;-69
2023/07/10 08:23:05;;;;;;;13.73;9.07;;;;;;;30.34;55.96;100905.72;4945691;28;20574;-68
2023/07/10 08:25:32;;;;;;;14.57;8.32;;;;;;;29.71;58.14;100919.47;4946858;28;20305;-69
2023/07/10 08:27:59;;;;;;;15.48;8.90;;;;;;;29.11;59.89;100915.56;4947587;28;20780;-69
2023/07/10 08:30:27;;;;;;;11.93;8.60;;;;;;;29.23;59.97;100912.19;4947019;28;20592;-69
2023/07/10 08:32:53;;;;;;;14.40;9.13;;;;;;;28.97;60.41;100903.59;4946365;28;20252;-69
2023/07/10 08:35:20;;;;;;;11.77;9.20;;;;;;;28.84;61.00;100915.22;4940130;28;20206;-68
2023/07/10 08:37:47;;;;;;;12.95;8.50;;;;;;;28.65;62.61;100908.00;4946595;28;20249;-69
2023/07/10 08:40:21;;;;;;;10.98;8.57;;;;;;;28.83;62.21;100911.59;4943451;28;20202;-69
2023/07/10 08:42:47;;;;;;;14.23;8.88;;;;;;;28.63;62.16;100922.69;4946387;29;20202;-69
2023/07/10 08:45:20;;;;;;;14.15;8.35;;;;;;;28.04;63.58;100922.06;4949772;29;20206;-69
2023/07/10 08:47:53;;;;;;;10.02;7.95;;;;;;;27.43;65.91;100927.75;4947866;29;20697;-69
2023/07/10 08:50:28;;;;;;;13.40;8.55;;;;;;;27.46;66.65;100924.00;4949295;29;20297;-69
2023/07/10 08:53:06;;;;;;;13.38;8.35;;;;;;;27.87;64.49;100929.31;4948494;29;20280;-69
2023/07/10 08:55:41;;;;;;;13.68;8.60;;;;;;;28.53;62.40;100922.28;4943955;29;20194;-70
2023/07/10 08:58:17;;;;;;;14.43;8.30;;;;;;;29.34;59.90;100931.56;4946026;28;20265;-70
2023/07/10 09:00:47;;;;;;;12.32;8.13;;;;;;;30.15;56.65;100940.59;4947866;29;20194;-70
2023/07/10 09:03:28;;;;;;;10.77;8.20;;;;;;;30.63;53.98;100935.91;4946977;28;20305;-70
2023/07/10 09:05:55;;;;;;;9.93;7.05;;;;;;;31.23;53.70;100935.84;4946448;29;20261;-70
2023/07/10 09:08:22;;;;;;;13.05;7.53;;;;;;;31.22;53.20;100939.53;4945301;29;20248;-70
2023/07/10 09:10:52;;;;;;;11.32;7.75;;;;;;;30.06;55.43;100938.44;4934931;29;20694;-71
2023/07/10 09:13:46;;;;;;;14.77;8.85;;;;;;;29.61;56.68;100938.19;4936491;28;20205;-70
2023/07/10 09:16:16;;;;;;;12.50;8.75;;;;;;;29.45;57.30;100933.72;4945233;28;20210;-71
2023/07/10 09:18:58;;;;;;;13.00;8.38;;;;;;;29.97;56.69;100956.19;4946493;28;20241;-70
2023/07/10 09:21:29;;;;;;;11.32;8.13;;;;;;;29.34;57.56;100937.03;4950192;28;20577;-70
2023/07/10 09:23:56;;;;;;;8.80;7.90;;;;;;;29.19;57.82;100935.13;4932457;29;20226;-70
2023/07/10 09:26:38;;;;;;;10.13;7.95;;;;;;;29.18;58.26;100926.06;4947644;28;20202;-70
2023/07/10 09:29:24;;;;;;;10.38;8.18;;;;;;;29.53;56.60;100932.31;4946781;28;20284;-71
2023/07/10 09:32:18;;;;;;;9.73;7.25;;;;;;;29.83;56.30;100943.34;4946805;28;20206;-70
2023/07/10 09:34:58;;;;;;;13.60;7.75;;;;;;;30.15;55.00;100935.16;4944611;28;20230;-70
2023/07/10 09:37:33;;;;;;;9.27;7.35;;;;;;;30.44;54.13;100930.66;4947897;29;20217;-72
2023/07/10 09:40:37;;;;;;;9.20;8.00;;;;;;;30.64;52.98;100938.56;4946519;28;20245;-71
2023/07/10 09:43:06;;;;;;;11.93;8.27;;;;;;;31.36;50.94;100928.59;4947222;28;20198;-71
2023/07/10 09:45:35;;;;;;;10.95;7.40;;;;;;;31.61;50.31;100922.38;4931621;28;20208;-71
2023/07/10 09:48:11;;;;;;;11.88;7.70;;;;;;;31.57;50.65;100923.56;4945248;28;20218;-71
2023/07/10 09:50:38;;;;;;;8.80;7.43;;;;;;;30.72;52.32;100924.41;4948945;28;20202;-70
2023/07/10 09:53:31;;;;;;;10.48;7.60;;;;;;;30.17;53.41;100917.69;4948007;28;20209;-70
2023/07/10 09:55:58;;;;;;;8.40;7.13;;;;;;;30.26;52.85;100927.19;4932401;29;20198;-69
2023/07/10 09:58:25;;;;;;;10.73;7.63;;;;;;;30.02;53.58;100924.06;4948527;29;20253;-70
2023/07/10 10:00:52;;;;;;;8.43;7.07;;;;;;;30.19;53.56;100917.59;4950244;29;20665;-70
2023/07/10 10:03:27;;;;;;;11.15;7.45;;;;;;;31.06;51.82;100912.22;4946266;28;20202;-70
2023/07/10 10:05:56;;;;;;;10.77;7.80;;;;;;;30.62;51.74;100926.84;4948225;28;20740;-70
2023/07/10 10:08:31;;;;;;;10.32;7.95;;;;;;;30.73;51.63;100929.78;4945915;28;20226;-70
2023/07/10 10:11:07;;;;;;;9.98;8.15;;;;;;;30.60;52.67;100908.75;4949563;28;20232;-70
2023/07/10 10:13:56;;;;;;;11.32;7.25;;;;;;;30.50;52.68;100919.34;4948433;28;20197;-71
2023/07/10 10:16:31;;;;;;;9.10;7.50;;;;;;;30.75;52.00;100895.00;4947958;28;20206;-70
2023/07/10 10:19:04;;;;;;;10.70;7.80;;;;;;;30.81;52.20;100897.34;4946490;28;20206;-70
2023/07/10 10:21:33;;;;;;;10.05;8.07;;;;;;;30.28;53.41;100905.22;4947091;29;20225;-71
2023/07/10 10:24:05;;;;;;;12.73;9.93;;;;;;;29.92;55.44;100910.00;4943973;28;21035;-70
2023/07/10 10:27:00;;;;;;;12.18;9.05;;;;;;;29.53;55.92;100913.19;4942902;28;20285;-70
2023/07/10 10:29:55;;;;;;;12.15;8.85;;;;;;;29.63;55.95;100905.38;4942908;28;20198;-70
2023/07/10 10:32:35;;;;;;;8.82;7.50;;;;;;;29.67;52.52;100906.09;4944074;28;20206;-71
2023/07/10 10:35:16;;;;;;;11.07;7.75;;;;;;;29.99;51.87;100904.19;4941301;28;20207;-70
2023/07/10 10:37:53;;;;;;;9.48;6.47;;;;;;;30.05;50.21;100904.75;4945968;29;20233;-70
2023/07/10 10:40:45;;;;;;;9.20;6.55;;;;;;;30.27;48.56;100898.88;4947903;28;20872;-69
2023/07/10 10:43:37;;;;;;;8.00;6.32;;;;;;;30.52;48.44;100892.81;4943164;28;20207;-70
2023/07/10 10:46:22;;;;;;;8.00;6.47;;;;;;;30.60;49.00;100889.63;4945661;28;20214;-70
2023/07/10 10:49:03;;;;;;;8.70;6.15;;;;;;;31.40;46.95;100881.75;4947393;29;20602;-70
2023/07/10 10:51:54;;;;;;;7.65;6.78;;;;;;;32.06;45.40;100885.59;4949048;29;20216;-70
2023/07/10 10:54:50;;;;;;;7.43;6.43;;;;;;;32.15;43.91;100874.00;4931311;28;20206;-71
2023/07/10 10:57:50;;;;;;;8.10;7.03;;;;;;;32.06;43.65;100880.13;4947285;28;20249;-70
2023/07/10 11:00:43;;;;;;;8.60;6.90;;;;;;;31.90;44.48;100883.00;4942953;28;20217;-69
2023/07/10 11:03:39;;;;;;;10.40;6.70;;;;;;;31.56;45.22;100878.00;4947140;28;20226;-69
2023/07/10 11:06:30;;;;;;;12.40;7.97;;;;;;;31.10;46.75;100867.28;4947412;29;20210;-71
2023/07/10 11:09:00;;;;;;;9.73;6.70;;;;;;;32.09;45.47;100871.69;4945905;29;20579;-72
2023/07/10 11:11:30;;;;;;;8.23;6.80;;;;;;;32.47;43.02;100863.56;4942620;28;20285;-72
2023/07/10 11:13:59;;;;;;;7.93;6.05;;;;;;;32.84;41.41;100861.88;4941997;28;20207;-72
2023/07/10 11:16:29;;;;;;;8.18;6.45;;;;;;;33.28;41.46;100866.84;4940970;28;20210;-72
2023/07/10 11:18:57;;;;;;;7.85;6.22;;;;;;;33.57;40.89;100867.44;4945932;28;20698;-71
2023/07/10 11:21:23;;;;;;;6.88;5.82;;;;;;;34.19;38.73;100870.06;4947269;28;20210;-72
2023/07/10 11:23:50;;;;;;;8.82;5.82;;;;;;;34.36;37.51;100856.88;4947143;28;20678;-71
2023/07/10 11:26:25;;;;;;;7.13;5.57;;;;;;;34.05;36.16;100867.53;4945415;28;20202;-69